Rechercher aéroport 
image banner adimage banner adimage banner ad
image banner ad

33CN - Platform Hillhouse

Situé à Carpinteria, United States

ICAO - 33CN, IATA -

Données fournies par Airmate  

Information générale

Coordonnées: N34°19'52" W119°36'16"
Élévation : 98 feet MSL.
Variation magnétique : 14° East
Voir autres Aéroports à California

Données opérationnelles

Special qualification required
Heure actuelle UTC:
Heure actuelle locale:
Météo à : KSBA - Santa Barbara Muni ( 24 km )
METAR: KSBA 251453Z 00000KT 6SM BR OVC006 16/14 A2999 RMK AO2 SLP156 T01560139 53007 $
TAF: KSBA 251158Z 2512/2612 VRB03KT P6SM OVC006 FM251700 14007KT P6SM BKN009 BKN120 FM252100 24008KT P6SM BKN120 FM260200 VRB03KT P6SM BKN120 FM260800 VRB03KT P6SM OVC007
Voir NOTAMs / SUP AIP / TFR affectant cet aéroport [VIEW]
Fréquences de communication: [VIEW]

Pistes:

Coordonnées de l'aéroport

Adresse: Carpinteria United States

Vue satellite de 33CN